Destinations Belgrade Nikola Tesla Airport

Belgrade Nikola Tesla Airport (LYBE / BEG)

Flights to Belgrade Nikola Tesla Airport

Flight number From ETE Dispatch
SPY-2514 EGPH Edinburgh Airport 03:05

Flights from Belgrade Nikola Tesla Airport

Flight number To ETE Dispatch
SPY-2515 EGPH Edinburgh Airport 03:10
About

Belgrade Nikola Tesla Airport facts

Belgrade Nikola Tesla Airport is located in Belgrade at an elevation of 102.1 meters or 335 feet.

Currently, Speedy Airlines serves 2 flights to and from Belgrade Nikola Tesla Airport.

Detailed airport info

Route map

Weather

Current weather

METAR

METAR

Metar data retrieved Sunday, 21 July 2024 at 19:55 UTC

LYBE 211930Z 26007KT 220V280 CAVOK 27/18 Q1010 NOSIG
Wind Temperature
7 kt 27c